createdAt,value
2023-01-26T00:01:16.879Z,21.73
2023-01-26T00:04:05.659Z,20.40
2023-01-26T00:06:54.166Z,19.33
2023-01-26T00:09:42.667Z,22.27
2023-01-26T00:12:31.302Z,20.90
2023-01-26T00:15:21.263Z,22.37
2023-01-26T00:18:10.467Z,22.30
2023-01-26T00:20:59.245Z,21.80
2023-01-26T00:23:48.110Z,22.67
2023-01-26T00:26:36.697Z,20.83
2023-01-26T00:29:25.185Z,22.50
2023-01-26T00:32:15.077Z,19.70
2023-01-26T00:35:03.683Z,22.07
2023-01-26T00:37:52.214Z,21.53
2023-01-26T00:40:40.912Z,18.80
2023-01-26T00:43:29.386Z,21.23
2023-01-26T00:46:17.935Z,22.40
2023-01-26T00:49:07.848Z,20.67
2023-01-26T00:51:56.310Z,20.80
2023-01-26T00:54:44.774Z,20.70
2023-01-26T00:57:33.286Z,21.53
2023-01-26T01:00:21.927Z,20.83
2023-01-26T01:03:10.523Z,22.17
2023-01-26T01:06:00.361Z,21.40
2023-01-26T01:08:48.916Z,21.00
2023-01-26T01:11:37.469Z,23.63
2023-01-26T01:14:25.993Z,22.10
2023-01-26T01:17:14.508Z,21.57
2023-01-26T01:20:03.360Z,22.17
2023-01-26T01:22:53.479Z,23.67
2023-01-26T01:25:41.975Z,22.77
2023-01-26T01:28:30.536Z,23.67
2023-01-26T01:31:19.142Z,21.47
2023-01-26T01:34:08.120Z,24.30
2023-01-26T01:36:56.668Z,23.90
2023-01-26T01:39:46.516Z,22.07
2023-01-26T01:42:35.198Z,23.43
2023-01-26T01:45:44.325Z,23.53
2023-01-26T01:48:37.659Z,20.10
2023-01-26T01:51:32.440Z,21.10
2023-01-26T01:54:25.168Z,20.53
2023-01-26T01:57:27.766Z,21.90
2023-01-26T02:00:18.849Z,20.80
2023-01-26T02:03:12.710Z,22.83
2023-01-26T02:06:03.121Z,22.47
2023-01-26T02:08:53.236Z,20.97
2023-01-26T02:11:44.874Z,22.03
2023-01-26T02:14:35.116Z,22.97
2023-01-26T02:17:23.729Z,24.33
2023-01-26T02:20:16.788Z,22.87
2023-01-26T02:23:11.445Z,22.50
2023-01-26T02:26:05.675Z,21.20
2023-01-26T02:28:54.658Z,22.47
2023-01-26T02:31:43.598Z,20.83
2023-01-26T02:34:32.156Z,21.70
2023-01-26T02:37:20.673Z,22.87
2023-01-26T02:40:14.424Z,23.43
2023-01-26T02:43:04.433Z,20.57
2023-01-26T02:45:53.926Z,23.20
2023-01-26T02:49:00.135Z,21.67
2023-01-26T02:51:48.661Z,23.80
2023-01-26T02:54:54.546Z,23.33
2023-01-26T02:57:43.922Z,20.47
2023-01-26T03:00:37.211Z,22.80
2023-01-26T03:03:41.357Z,20.80
2023-01-26T03:06:30.144Z,20.50
2023-01-26T03:09:18.741Z,21.17
2023-01-26T03:12:07.434Z,20.23
2023-01-26T03:15:09.856Z,22.30
2023-01-26T03:18:30.790Z,20.67
2023-01-26T03:21:36.930Z,20.50
2023-01-26T03:24:43.062Z,22.63
2023-01-26T03:27:32.982Z,21.77
2023-01-26T03:30:21.477Z,21.50
2023-01-26T03:33:11.348Z,20.00
2023-01-26T03:35:59.944Z,22.00
2023-01-26T03:38:48.497Z,20.57
2023-01-26T03:41:54.336Z,19.43
2023-01-26T03:45:00.590Z,19.90
2023-01-26T03:48:06.852Z,20.93
2023-01-26T03:51:14.325Z,20.90
2023-01-26T03:54:20.141Z,21.83
2023-01-26T03:57:08.579Z,21.47
2023-01-26T03:59:57.103Z,21.17
2023-01-26T04:03:03.348Z,21.07
2023-01-26T04:06:15.510Z,20.80
2023-01-26T04:09:06.518Z,21.20
2023-01-26T04:11:55.026Z,20.60
2023-01-26T04:15:00.892Z,19.00
2023-01-26T04:18:07.226Z,18.57
2023-01-26T04:21:13.394Z,17.43
2023-01-26T04:24:09.437Z,19.83
2023-01-26T04:26:59.285Z,19.40
2023-01-26T04:29:47.869Z,21.80
2023-01-26T04:32:36.509Z,19.83
2023-01-26T04:35:24.966Z,20.60
2023-01-26T04:38:13.424Z,22.70
2023-01-26T04:41:02.124Z,20.83
2023-01-26T04:43:52.108Z,21.17
2023-01-26T04:46:40.569Z,20.70
2023-01-26T04:49:29.073Z,22.40
2023-01-26T04:52:17.812Z,22.83
2023-01-26T04:55:06.843Z,21.80
2023-01-26T04:57:59.958Z,22.40
2023-01-26T05:00:53.934Z,22.97
2023-01-26T05:03:42.450Z,25.23
2023-01-26T05:06:31.022Z,22.67
2023-01-26T05:09:19.720Z,22.33
2023-01-26T05:12:22.307Z,25.07
2023-01-26T05:15:11.388Z,24.80
2023-01-26T05:18:01.539Z,20.90
2023-01-26T05:20:50.075Z,21.20
2023-01-26T05:23:38.658Z,22.00
2023-01-26T05:26:27.306Z,22.57
2023-01-26T05:29:15.980Z,21.40
2023-01-26T05:32:04.577Z,23.23
2023-01-26T05:34:54.549Z,21.70
2023-01-26T05:37:43.489Z,20.50
2023-01-26T05:40:32.036Z,20.90
2023-01-26T05:43:20.474Z,21.50
2023-01-26T05:46:09.092Z,19.80
2023-01-26T05:48:57.627Z,21.73
2023-01-26T05:51:47.441Z,23.30
2023-01-26T05:54:36.019Z,20.70
2023-01-26T05:57:24.499Z,21.93
2023-01-26T06:00:14.150Z,22.03
2023-01-26T06:03:02.746Z,21.20
2023-01-26T06:05:55.155Z,22.17
2023-01-26T06:08:45.019Z,19.60
2023-01-26T06:11:34.415Z,21.10
2023-01-26T06:14:22.920Z,20.90
2023-01-26T06:17:11.689Z,20.20
2023-01-26T06:20:00.134Z,19.60
2023-01-26T06:22:48.665Z,23.27
2023-01-26T06:25:39.363Z,21.77
2023-01-26T06:28:27.995Z,20.73
2023-01-26T06:31:16.643Z,22.33
2023-01-26T06:34:05.670Z,21.70
2023-01-26T06:36:54.707Z,19.73
2023-01-26T06:39:43.245Z,22.87
2023-01-26T06:42:33.142Z,21.20
2023-01-26T06:45:21.715Z,19.67
2023-01-26T06:48:10.224Z,21.73
2023-01-26T06:50:59.167Z,21.00
2023-01-26T06:53:49.767Z,24.03
2023-01-26T06:56:38.264Z,22.70
2023-01-26T06:59:28.161Z,21.73
2023-01-26T07:02:19.223Z,22.60
2023-01-26T07:05:08.485Z,21.10
2023-01-26T07:07:56.987Z,21.53
2023-01-26T07:10:45.620Z,23.90
2023-01-26T07:13:34.468Z,23.03
2023-01-26T07:16:24.455Z,24.20
2023-01-26T07:19:12.921Z,21.40
2023-01-26T07:22:01.519Z,22.20
2023-01-26T07:24:50.084Z,22.00
2023-01-26T07:27:38.560Z,23.30
2023-01-26T07:30:27.576Z,22.30
2023-01-26T07:33:17.453Z,23.37
2023-01-26T07:36:06.585Z,21.10
2023-01-26T07:38:55.058Z,20.53
2023-01-26T07:41:43.515Z,21.70
2023-01-26T07:44:31.998Z,20.97
2023-01-26T07:47:20.530Z,18.87
2023-01-26T07:50:13.209Z,20.50
2023-01-26T07:53:01.767Z,21.50
2023-01-26T07:55:50.433Z,22.80
2023-01-26T07:58:39.243Z,21.57
2023-01-26T08:01:27.734Z,20.50
2023-01-26T08:04:16.343Z,20.87
2023-01-26T08:07:06.220Z,20.97
2023-01-26T08:09:54.838Z,21.07
2023-01-26T08:12:43.387Z,19.00
2023-01-26T08:15:31.884Z,20.20
2023-01-26T08:18:20.662Z,22.40
2023-01-26T08:21:09.894Z,20.50
2023-01-26T08:24:01.948Z,21.60
2023-01-26T08:26:50.566Z,17.27
2023-01-26T08:29:39.162Z,19.77
2023-01-26T08:32:27.698Z,18.60
2023-01-26T08:35:16.402Z,17.60
2023-01-26T08:38:05.404Z,16.73
2023-01-26T08:40:55.209Z,17.03
2023-01-26T08:43:43.897Z,17.57
2023-01-26T08:46:32.442Z,17.27
2023-01-26T08:49:20.884Z,16.33
2023-01-26T08:52:09.328Z,17.13
2023-01-26T08:54:57.854Z,17.07
2023-01-26T08:57:47.723Z,17.53
2023-01-26T09:00:36.243Z,18.83
2023-01-26T09:03:24.736Z,16.60
2023-01-26T09:06:14.660Z,16.90
2023-01-26T09:09:03.161Z,16.07
2023-01-26T09:11:51.659Z,14.20
2023-01-26T09:14:42.175Z,14.10
2023-01-26T09:17:30.699Z,14.77
2023-01-26T09:20:20.187Z,15.40
2023-01-26T09:23:08.838Z,16.27
2023-01-26T09:25:57.367Z,17.03
2023-01-26T09:28:45.872Z,16.77
2023-01-26T09:31:35.892Z,17.27
2023-01-26T09:34:25.269Z,15.83
2023-01-26T09:37:13.858Z,16.43
2023-01-26T09:40:02.402Z,16.97
2023-01-26T09:43:01.516Z,17.70
2023-01-26T09:45:57.790Z,16.50
2023-01-26T09:48:55.263Z,16.40
2023-01-26T09:51:47.658Z,15.80
2023-01-26T09:54:39.653Z,18.13
2023-01-26T09:57:31.951Z,16.70
2023-01-26T10:00:23.329Z,16.73
2023-01-26T10:03:19.866Z,17.03
2023-01-26T10:06:17.327Z,16.83
2023-01-26T10:09:12.926Z,16.07
2023-01-26T10:12:03.739Z,17.23
2023-01-26T10:14:57.303Z,16.90
2023-01-26T10:17:47.165Z,16.40
2023-01-26T10:20:37.023Z,17.10
2023-01-26T10:23:30.223Z,16.90
2023-01-26T10:26:20.094Z,15.20
2023-01-26T10:29:15.594Z,15.63
2023-01-26T10:32:04.847Z,13.70
2023-01-26T10:34:53.719Z,14.20
2023-01-26T10:37:42.252Z,14.47
2023-01-26T10:40:44.484Z,13.40
2023-01-26T10:43:37.041Z,14.00
2023-01-26T10:46:31.766Z,13.60
2023-01-26T10:49:21.957Z,14.60
2023-01-26T10:52:18.403Z,14.50
2023-01-26T10:55:13.737Z,13.73
2023-01-26T10:58:03.824Z,13.03
2023-01-26T11:00:56.513Z,12.83
2023-01-26T11:04:04.700Z,13.10
2023-01-26T11:06:53.358Z,12.10
2023-01-26T11:09:41.869Z,11.20
2023-01-26T11:12:30.364Z,13.47
2023-01-26T11:15:22.083Z,11.20
2023-01-26T11:18:22.358Z,13.60
2023-01-26T11:21:16.976Z,12.60
2023-01-26T11:24:07.089Z,12.30
2023-01-26T11:27:12.004Z,10.93
2023-01-26T11:30:19.166Z,11.60
2023-01-26T11:33:17.312Z,13.83
2023-01-26T11:36:12.377Z,10.23
2023-01-26T11:39:05.653Z,11.80
2023-01-26T11:42:06.238Z,12.27
2023-01-26T11:45:14.173Z,10.57
2023-01-26T11:48:14.390Z,11.03
2023-01-26T11:51:08.596Z,10.83
2023-01-26T11:54:08.201Z,10.80
2023-01-26T11:57:04.528Z,10.27
2023-01-26T11:59:55.603Z,11.70
2023-01-26T12:02:45.158Z,10.20
2023-01-26T12:05:43.190Z,10.43
2023-01-26T12:08:39.469Z,9.90
2023-01-26T12:11:31.850Z,12.50
2023-01-26T12:14:24.754Z,10.67
2023-01-26T12:17:29.365Z,10.37
2023-01-26T12:20:25.677Z,10.93
2023-01-26T12:23:30.987Z,10.77
2023-01-26T12:26:21.934Z,10.23
2023-01-26T12:29:17.300Z,10.03
2023-01-26T12:32:09.887Z,9.90
2023-01-26T12:34:59.024Z,10.53
2023-01-26T12:37:51.621Z,10.17
2023-01-26T12:40:45.694Z,10.67
2023-01-26T12:43:45.381Z,10.63
2023-01-26T12:46:37.647Z,9.37
2023-01-26T12:49:30.541Z,10.43
2023-01-26T12:52:24.448Z,10.13
2023-01-26T12:55:17.805Z,10.30
2023-01-26T12:58:13.887Z,10.60
2023-01-26T13:01:06.486Z,10.10
2023-01-26T13:03:56.456Z,11.80
2023-01-26T13:06:44.991Z,8.97
2023-01-26T13:09:33.479Z,9.23
2023-01-26T13:12:46.322Z,9.40
2023-01-26T13:15:36.245Z,9.50
2023-01-26T13:18:51.227Z,8.83
2023-01-26T13:21:45.141Z,10.30
2023-01-26T13:24:43.910Z,10.50
2023-01-26T13:27:34.279Z,11.00
2023-01-26T13:30:40.107Z,9.80
2023-01-26T13:33:28.669Z,10.90
2023-01-26T13:36:19.011Z,11.07
2023-01-26T13:39:14.308Z,9.33
2023-01-26T13:42:03.375Z,10.97
2023-01-26T13:44:57.101Z,9.90
2023-01-26T13:47:48.934Z,9.93
2023-01-26T13:50:38.655Z,10.70
2023-01-26T13:53:36.497Z,9.40
2023-01-26T13:56:28.473Z,9.57
2023-01-26T13:59:19.447Z,9.57
2023-01-26T14:02:21.466Z,9.00
2023-01-26T14:05:22.249Z,7.40
2023-01-26T14:08:14.509Z,9.27
2023-01-26T14:11:04.744Z,9.77
2023-01-26T14:13:56.154Z,9.07
2023-01-26T14:16:44.796Z,7.97
2023-01-26T14:19:33.295Z,7.70
2023-01-26T14:22:23.289Z,7.67
2023-01-26T14:25:12.151Z,8.00
2023-01-26T14:28:01.064Z,8.10
2023-01-26T14:30:53.109Z,7.23
2023-01-26T14:33:41.693Z,7.20
2023-01-26T14:36:36.998Z,8.13
2023-01-26T14:39:26.874Z,8.00
2023-01-26T14:42:16.715Z,9.93
2023-01-26T14:45:06.127Z,8.57
2023-01-26T14:47:54.939Z,11.53
2023-01-26T14:50:45.015Z,10.33
2023-01-26T14:53:33.818Z,10.00
2023-01-26T14:56:28.895Z,10.80
2023-01-26T14:59:22.311Z,10.10
2023-01-26T15:02:16.795Z,10.73
2023-01-26T15:05:13.634Z,12.73
2023-01-26T15:08:04.824Z,12.70
2023-01-26T15:11:18.170Z,14.30
2023-01-26T15:14:32.859Z,15.87
2023-01-26T15:17:29.895Z,14.17
2023-01-26T15:20:39.713Z,13.87
2023-01-26T15:23:30.678Z,14.83
2023-01-26T15:26:27.339Z,14.90
2023-01-26T15:29:25.276Z,14.90
2023-01-26T15:32:29.427Z,13.60
2023-01-26T15:35:25.797Z,14.37
2023-01-26T15:38:14.716Z,14.10
2023-01-26T15:41:03.460Z,14.37
2023-01-26T15:43:51.995Z,15.90
2023-01-26T15:46:41.886Z,15.20
2023-01-26T15:49:30.417Z,14.50
2023-01-26T15:52:21.278Z,14.40
2023-01-26T15:55:21.351Z,15.60
2023-01-26T15:58:09.859Z,14.80
2023-01-26T16:00:58.959Z,15.90
2023-01-26T16:03:49.050Z,15.03
2023-01-26T16:06:37.666Z,14.50
2023-01-26T16:09:26.181Z,14.43
2023-01-26T16:12:30.396Z,14.23
2023-01-26T16:15:25.906Z,14.93
2023-01-26T16:18:14.717Z,15.47
2023-01-26T16:21:15.013Z,17.50
2023-01-26T16:24:04.207Z,15.70
2023-01-26T16:26:52.686Z,17.83
2023-01-26T16:29:41.206Z,16.20
2023-01-26T16:32:30.663Z,16.77
2023-01-26T16:35:21.184Z,16.00
2023-01-26T16:38:13.028Z,17.40
2023-01-26T16:41:01.575Z,15.30
2023-01-26T16:43:50.088Z,15.80
2023-01-26T16:46:38.540Z,16.17
2023-01-26T16:49:29.417Z,17.63
2023-01-26T16:52:17.948Z,16.50
2023-01-26T16:55:12.765Z,15.57
2023-01-26T16:58:01.360Z,15.80
2023-01-26T17:00:50.042Z,14.30
2023-01-26T17:03:38.571Z,17.13
2023-01-26T17:06:27.075Z,17.37
2023-01-26T17:09:15.785Z,17.33
2023-01-26T17:12:06.254Z,17.23
2023-01-26T17:14:55.028Z,16.90
2023-01-26T17:17:45.559Z,17.10
2023-01-26T17:20:34.128Z,17.23
2023-01-26T17:23:22.736Z,17.27
2023-01-26T17:26:13.138Z,15.93
2023-01-26T17:29:02.971Z,17.57
2023-01-26T17:31:52.473Z,18.10
2023-01-26T17:34:40.975Z,19.57
2023-01-26T17:37:31.533Z,18.63
2023-01-26T17:40:20.260Z,16.63
2023-01-26T17:43:08.751Z,18.20
2023-01-26T17:46:06.710Z,16.40
2023-01-26T17:48:55.670Z,17.03
2023-01-26T17:51:46.819Z,16.37
2023-01-26T17:54:35.575Z,17.10
2023-01-26T17:57:24.078Z,17.90
2023-01-26T18:00:14.370Z,16.50
2023-01-26T18:03:04.242Z,15.10
2023-01-26T18:05:53.261Z,17.00
2023-01-26T18:08:42.013Z,17.17
2023-01-26T18:11:30.475Z,18.37
2023-01-26T18:14:19.076Z,17.47
2023-01-26T18:17:07.609Z,18.60
2023-01-26T18:19:57.446Z,17.40
2023-01-26T18:22:45.926Z,19.33
2023-01-26T18:25:35.350Z,16.80
2023-01-26T18:28:23.874Z,17.70
2023-01-26T18:31:13.332Z,18.30
2023-01-26T18:34:03.098Z,17.33
2023-01-26T18:36:52.992Z,19.10
2023-01-26T18:39:41.474Z,17.73
2023-01-26T18:42:29.960Z,17.83
2023-01-26T18:45:18.609Z,17.73
2023-01-26T18:48:07.451Z,19.33
2023-01-26T18:50:55.988Z,17.93
2023-01-26T18:53:46.290Z,18.20
2023-01-26T18:56:36.186Z,19.30
2023-01-26T18:59:24.708Z,19.70
2023-01-26T19:02:14.672Z,18.93
2023-01-26T19:05:03.181Z,21.70
2023-01-26T19:07:51.711Z,20.17
2023-01-26T19:10:41.694Z,20.57
2023-01-26T19:13:30.351Z,22.40
2023-01-26T19:16:19.022Z,20.67
2023-01-26T19:19:08.496Z,20.40
2023-01-26T19:21:56.988Z,19.70
2023-01-26T19:24:46.026Z,20.60
2023-01-26T19:27:35.862Z,20.33
2023-01-26T19:30:24.368Z,19.50
2023-01-26T19:33:24.961Z,20.80
2023-01-26T19:36:13.522Z,18.47
2023-01-26T19:39:02.301Z,20.43
2023-01-26T19:41:50.842Z,20.87
2023-01-26T19:44:40.719Z,21.13
2023-01-26T19:47:29.277Z,20.87
2023-01-26T19:50:18.143Z,21.67
2023-01-26T19:53:07.700Z,20.17
2023-01-26T19:55:56.383Z,20.07
2023-01-26T19:58:45.417Z,20.77
2023-01-26T20:01:35.766Z,20.40
2023-01-26T20:04:24.251Z,19.63
2023-01-26T20:07:12.740Z,20.50
2023-01-26T20:10:01.250Z,19.83
2023-01-26T20:12:49.814Z,20.57
2023-01-26T20:15:38.323Z,19.07
2023-01-26T20:18:28.497Z,19.77
2023-01-26T20:21:17.114Z,18.20
2023-01-26T20:24:06.917Z,20.27
2023-01-26T20:26:55.939Z,21.23
2023-01-26T20:29:44.500Z,19.57
2023-01-26T20:32:34.325Z,22.40
2023-01-26T20:35:24.197Z,19.47
2023-01-26T20:38:12.711Z,19.03
2023-01-26T20:41:01.282Z,22.73
2023-01-26T20:43:59.259Z,20.23
2023-01-26T20:46:48.881Z,21.30
2023-01-26T20:49:37.827Z,18.93
2023-01-26T20:52:27.689Z,18.03
2023-01-26T20:55:16.257Z,17.40
2023-01-26T20:58:06.900Z,18.23
2023-01-26T21:00:55.555Z,18.00
2023-01-26T21:03:44.553Z,17.50
2023-01-26T21:06:33.257Z,18.93
2023-01-26T21:09:23.097Z,18.27
2023-01-26T21:12:11.653Z,18.17
2023-01-26T21:15:00.132Z,16.80
2023-01-26T21:17:48.626Z,18.67
2023-01-26T21:20:37.096Z,17.47
2023-01-26T21:23:25.680Z,18.47
2023-01-26T21:26:17.020Z,17.43
2023-01-26T21:29:06.263Z,17.60
2023-01-26T21:31:54.709Z,17.67
2023-01-26T21:34:43.304Z,16.23
2023-01-26T21:37:32.969Z,17.77
2023-01-26T21:40:21.872Z,18.63
2023-01-26T21:43:11.921Z,16.93
2023-01-26T21:46:00.580Z,18.10
2023-01-26T21:48:49.090Z,17.70
2023-01-26T21:51:55.574Z,18.00
2023-01-26T21:54:44.045Z,17.87
2023-01-26T21:57:50.119Z,16.20
2023-01-26T22:00:43.144Z,16.30
2023-01-26T22:03:32.001Z,18.60
2023-01-26T22:06:20.631Z,16.67
2023-01-26T22:09:12.700Z,16.77
2023-01-26T22:12:01.180Z,17.70
2023-01-26T22:14:51.745Z,18.13
2023-01-26T22:17:41.648Z,17.30
2023-01-26T22:20:30.133Z,17.47
2023-01-26T22:23:18.593Z,18.83
2023-01-26T22:26:08.253Z,18.10
2023-01-26T22:28:58.736Z,18.70
2023-01-26T22:31:47.346Z,17.50
2023-01-26T22:34:37.230Z,16.97
2023-01-26T22:37:25.667Z,17.13
2023-01-26T22:40:15.442Z,18.30
2023-01-26T22:43:04.023Z,17.67
2023-01-26T22:45:52.612Z,17.53
2023-01-26T22:48:41.146Z,16.33
2023-01-26T22:51:32.099Z,17.03
2023-01-26T22:54:20.527Z,17.20
2023-01-26T22:57:09.007Z,19.20
2023-01-26T22:59:58.136Z,17.63
2023-01-26T23:02:46.625Z,17.73
2023-01-26T23:05:35.590Z,16.50
2023-01-26T23:08:25.559Z,16.10
2023-01-26T23:11:15.867Z,18.40
2023-01-26T23:14:04.489Z,17.60
2023-01-26T23:16:52.957Z,16.97
2023-01-26T23:19:41.440Z,18.37
2023-01-26T23:22:29.937Z,18.13
2023-01-26T23:25:36.987Z,18.93
2023-01-26T23:28:26.912Z,17.30
2023-01-26T23:31:17.522Z,17.17
2023-01-26T23:34:06.154Z,17.50
2023-01-26T23:36:54.659Z,17.50
2023-01-26T23:39:43.119Z,19.10
2023-01-26T23:42:41.536Z,16.63
2023-01-26T23:45:38.647Z,18.20
2023-01-26T23:48:27.350Z,16.90
2023-01-26T23:51:16.318Z,19.10
2023-01-26T23:54:04.871Z,17.43
2023-01-26T23:56:53.390Z,18.57
2023-01-26T23:59:43.258Z,16.53
